createdAt,value
2023-05-19T00:02:05.901Z,2.25
2023-05-19T00:04:33.620Z,2.10
2023-05-19T00:07:01.883Z,1.90
2023-05-19T00:09:28.835Z,2.10
2023-05-19T00:11:56.791Z,2.30
2023-05-19T00:14:23.996Z,2.03
2023-05-19T00:16:51.194Z,1.75
2023-05-19T00:19:18.720Z,1.95
2023-05-19T00:21:45.629Z,2.00
2023-05-19T00:24:13.143Z,2.20
2023-05-19T00:26:39.984Z,2.30
2023-05-19T00:29:06.921Z,1.80
2023-05-19T00:31:36.637Z,2.13
2023-05-19T00:34:03.499Z,1.98
2023-05-19T00:36:31.000Z,2.15
2023-05-19T00:38:57.742Z,2.17
2023-05-19T00:41:25.004Z,1.88
2023-05-19T00:43:51.927Z,2.00
2023-05-19T00:46:19.774Z,2.10
2023-05-19T00:48:47.737Z,1.63
2023-05-19T00:51:16.823Z,1.77
2023-05-19T00:53:49.027Z,2.30
2023-05-19T00:56:17.347Z,2.33
2023-05-19T00:58:45.223Z,1.95
2023-05-19T01:01:14.394Z,2.10
2023-05-19T01:03:43.725Z,2.03
2023-05-19T01:06:12.243Z,2.20
2023-05-19T01:08:39.558Z,2.05
2023-05-19T01:11:07.579Z,2.17
2023-05-19T01:13:36.114Z,2.30
2023-05-19T01:16:30.248Z,2.22
2023-05-19T01:19:30.952Z,2.30
2023-05-19T01:22:22.769Z,1.88
2023-05-19T01:24:54.761Z,2.55
2023-05-19T01:27:55.982Z,2.22
2023-05-19T01:30:44.753Z,2.33
2023-05-19T01:33:14.295Z,2.05
2023-05-19T01:35:43.712Z,2.00
2023-05-19T01:38:12.685Z,2.10
2023-05-19T01:40:41.919Z,2.17
2023-05-19T01:43:11.713Z,1.90
2023-05-19T01:45:38.749Z,2.10
2023-05-19T01:48:07.859Z,2.05
2023-05-19T01:50:36.862Z,2.00
2023-05-19T01:53:03.711Z,2.05
2023-05-19T01:55:30.729Z,2.17
2023-05-19T01:58:43.232Z,2.42
2023-05-19T02:01:41.411Z,2.03
2023-05-19T02:04:18.572Z,2.10
2023-05-19T02:07:05.671Z,2.15
2023-05-19T02:09:40.692Z,1.85
2023-05-19T02:12:14.306Z,2.15
2023-05-19T02:14:52.789Z,1.92
2023-05-19T02:17:20.664Z,2.10
2023-05-19T02:19:47.507Z,2.10
2023-05-19T02:22:14.996Z,2.30
2023-05-19T02:24:41.701Z,1.95
2023-05-19T02:27:08.386Z,2.10
2023-05-19T02:29:35.194Z,1.92
2023-05-19T02:32:02.281Z,1.92
2023-05-19T02:34:29.050Z,2.00
2023-05-19T02:36:56.466Z,1.80
2023-05-19T02:39:23.323Z,2.00
2023-05-19T02:41:50.178Z,2.05
2023-05-19T02:44:16.895Z,2.10
2023-05-19T02:46:43.671Z,2.00
2023-05-19T02:49:11.155Z,2.10
2023-05-19T02:51:39.186Z,2.17
2023-05-19T02:54:06.155Z,2.20
2023-05-19T02:56:32.892Z,1.90
2023-05-19T02:58:59.635Z,1.95
2023-05-19T03:01:26.452Z,2.05
2023-05-19T03:03:53.301Z,2.20
2023-05-19T03:06:23.198Z,1.88
2023-05-19T03:08:50.490Z,2.00
2023-05-19T03:11:17.750Z,1.77
2023-05-19T03:13:44.496Z,1.98
2023-05-19T03:16:11.924Z,2.00
2023-05-19T03:18:38.822Z,2.10
2023-05-19T03:21:05.963Z,2.00
2023-05-19T03:23:32.851Z,2.03
2023-05-19T03:26:00.054Z,1.60
2023-05-19T03:28:27.516Z,2.10
2023-05-19T03:30:54.384Z,1.80
2023-05-19T03:33:25.075Z,1.83
2023-05-19T03:35:53.019Z,1.88
2023-05-19T03:38:20.297Z,1.85
2023-05-19T03:40:53.651Z,2.10
2023-05-19T03:43:20.533Z,1.80
2023-05-19T03:45:53.595Z,2.00
2023-05-19T03:48:43.062Z,2.08
2023-05-19T03:51:32.247Z,2.15
2023-05-19T03:54:06.992Z,1.88
2023-05-19T03:56:38.754Z,1.98
2023-05-19T03:59:07.792Z,2.05
2023-05-19T04:01:36.687Z,2.03
2023-05-19T04:04:03.511Z,1.75
2023-05-19T04:06:31.015Z,1.98
2023-05-19T04:08:57.827Z,2.03
2023-05-19T04:11:24.598Z,2.05
2023-05-19T04:13:51.853Z,2.10
2023-05-19T04:16:18.674Z,2.00
2023-05-19T04:18:46.393Z,2.08
2023-05-19T04:21:13.237Z,1.75
2023-05-19T04:23:40.006Z,1.88
2023-05-19T04:26:06.941Z,1.88
2023-05-19T04:28:36.651Z,2.17
2023-05-19T04:31:03.502Z,2.03
2023-05-19T04:33:30.305Z,2.03
2023-05-19T04:35:58.404Z,1.83
2023-05-19T04:38:25.271Z,1.60
2023-05-19T04:40:52.461Z,1.85
2023-05-19T04:43:22.186Z,1.85
2023-05-19T04:45:51.412Z,2.00
2023-05-19T04:48:21.644Z,1.80
2023-05-19T04:50:48.949Z,1.75
2023-05-19T04:53:15.909Z,2.10
2023-05-19T04:55:42.879Z,1.80
2023-05-19T04:58:09.874Z,2.20
2023-05-19T05:00:39.874Z,1.75
2023-05-19T05:03:08.927Z,2.03
2023-05-19T05:05:36.156Z,2.05
2023-05-19T05:08:03.232Z,1.85
2023-05-19T05:10:35.336Z,1.90
2023-05-19T05:13:02.487Z,1.80
2023-05-19T05:15:30.399Z,2.22
2023-05-19T05:18:00.379Z,2.08
2023-05-19T05:20:27.615Z,2.00
2023-05-19T05:22:54.690Z,1.70
2023-05-19T05:25:22.971Z,2.10
2023-05-19T05:27:51.240Z,2.25
2023-05-19T05:30:18.576Z,1.92
2023-05-19T05:32:46.198Z,1.83
2023-05-19T05:35:28.117Z,2.10
2023-05-19T05:37:55.946Z,2.40
2023-05-19T05:40:22.783Z,1.92
2023-05-19T05:42:49.570Z,2.08
2023-05-19T05:45:23.286Z,2.00
2023-05-19T05:47:52.791Z,2.08
2023-05-19T05:50:20.077Z,2.25
2023-05-19T05:52:48.028Z,2.10
2023-05-19T05:55:20.097Z,2.00
2023-05-19T05:57:50.421Z,1.90
2023-05-19T06:00:17.791Z,2.00
2023-05-19T06:02:51.570Z,1.80
2023-05-19T06:05:19.602Z,2.10
2023-05-19T06:07:47.584Z,2.10
2023-05-19T06:10:19.627Z,1.60
2023-05-19T06:12:47.273Z,1.80
2023-05-19T06:15:15.486Z,1.80
2023-05-19T06:18:00.131Z,1.65
2023-05-19T06:20:27.038Z,1.90
2023-05-19T06:22:54.276Z,2.03
2023-05-19T06:25:22.835Z,1.80
2023-05-19T06:27:50.251Z,1.92
2023-05-19T06:30:17.223Z,1.80
2023-05-19T06:32:53.511Z,2.00
2023-05-19T06:35:20.556Z,2.10
2023-05-19T06:37:47.667Z,2.08
2023-05-19T06:40:14.952Z,2.22
2023-05-19T06:42:42.655Z,2.25
2023-05-19T06:45:22.429Z,1.92
2023-05-19T06:47:51.169Z,1.90
2023-05-19T06:50:18.244Z,1.83
2023-05-19T06:52:47.113Z,1.83
2023-05-19T06:55:14.103Z,1.80
2023-05-19T06:57:40.895Z,1.63
2023-05-19T07:00:11.575Z,1.80
2023-05-19T07:02:40.155Z,1.85
2023-05-19T07:05:08.200Z,1.83
2023-05-19T07:07:35.606Z,1.88
2023-05-19T07:10:04.023Z,1.80
2023-05-19T07:12:32.386Z,2.00
2023-05-19T07:14:59.864Z,1.63
2023-05-19T07:17:28.543Z,1.63
2023-05-19T07:19:55.518Z,1.80
2023-05-19T07:22:24.182Z,1.50
2023-05-19T07:24:51.294Z,1.50
2023-05-19T07:27:18.338Z,1.80
2023-05-19T07:29:45.029Z,1.50
2023-05-19T07:32:11.749Z,1.80
2023-05-19T07:34:38.474Z,2.10
2023-05-19T07:37:05.210Z,1.70
2023-05-19T07:39:33.933Z,1.55
2023-05-19T07:42:00.798Z,1.60
2023-05-19T07:44:27.547Z,1.45
2023-05-19T07:46:54.927Z,1.52
2023-05-19T07:49:21.625Z,1.70
2023-05-19T07:51:48.474Z,1.58
2023-05-19T07:54:15.472Z,1.48
2023-05-19T07:56:42.236Z,1.50
2023-05-19T07:59:09.041Z,1.70
2023-05-19T08:01:35.890Z,1.50
2023-05-19T08:04:03.364Z,1.50
2023-05-19T08:06:30.177Z,1.60
2023-05-19T08:08:56.911Z,1.70
2023-05-19T08:11:23.708Z,1.63
2023-05-19T08:13:50.897Z,1.65
2023-05-19T08:16:17.818Z,1.52
2023-05-19T08:18:44.632Z,1.67
2023-05-19T08:21:11.739Z,1.58
2023-05-19T08:23:38.768Z,1.40
2023-05-19T08:26:05.751Z,1.50
2023-05-19T08:28:32.594Z,1.67
2023-05-19T08:30:59.376Z,1.70
2023-05-19T08:33:26.146Z,1.70
2023-05-19T08:35:52.932Z,1.95
2023-05-19T08:38:19.654Z,1.60
2023-05-19T08:40:48.373Z,1.65
2023-05-19T08:43:15.244Z,1.83
2023-05-19T08:45:46.526Z,1.58
2023-05-19T08:48:14.466Z,1.70
2023-05-19T08:50:43.454Z,2.00
2023-05-19T08:53:28.979Z,2.03
2023-05-19T08:56:11.594Z,1.70
2023-05-19T08:58:43.813Z,1.65
2023-05-19T09:01:14.450Z,1.70
2023-05-19T09:03:42.575Z,2.13
2023-05-19T09:06:13.039Z,2.20
2023-05-19T09:08:41.425Z,1.58
2023-05-19T09:11:10.017Z,1.88
2023-05-19T09:13:36.975Z,1.65
2023-05-19T09:16:04.437Z,1.70
2023-05-19T09:18:31.785Z,1.60
2023-05-19T09:21:00.698Z,2.08
2023-05-19T09:23:34.223Z,2.15
2023-05-19T09:26:08.483Z,1.65
2023-05-19T09:28:36.653Z,1.95
2023-05-19T09:31:07.353Z,1.90
2023-05-19T09:33:36.132Z,1.88
2023-05-19T09:36:06.082Z,2.00
2023-05-19T09:38:33.061Z,2.00
2023-05-19T09:41:00.767Z,1.63
2023-05-19T09:43:29.191Z,2.20
2023-05-19T09:46:16.625Z,2.30
2023-05-19T09:48:43.819Z,2.35
2023-05-19T09:51:10.774Z,2.03
2023-05-19T09:53:38.773Z,2.08
2023-05-19T09:56:06.164Z,1.90
2023-05-19T09:58:37.089Z,2.28
2023-05-19T10:01:05.483Z,2.15
2023-05-19T10:03:33.478Z,2.25
2023-05-19T10:06:01.621Z,2.20
2023-05-19T10:08:30.394Z,2.25
2023-05-19T10:10:57.926Z,2.20
2023-05-19T10:13:25.364Z,2.20
2023-05-19T10:15:58.865Z,2.45
2023-05-19T10:18:27.435Z,2.25
2023-05-19T10:20:54.646Z,2.47
2023-05-19T10:23:22.439Z,2.33
2023-05-19T10:25:51.356Z,2.40
2023-05-19T10:28:21.037Z,2.60
2023-05-19T10:30:50.861Z,2.75
2023-05-19T10:33:19.947Z,2.90
2023-05-19T10:36:02.656Z,2.80
2023-05-19T10:38:34.091Z,2.85
2023-05-19T10:41:11.502Z,2.70
2023-05-19T10:43:44.278Z,2.75
2023-05-19T10:46:12.103Z,2.90
2023-05-19T10:48:43.890Z,2.72
2023-05-19T10:51:12.305Z,2.83
2023-05-19T10:53:46.263Z,3.00
2023-05-19T10:56:33.870Z,2.55
2023-05-19T10:59:01.536Z,2.90
2023-05-19T11:01:37.146Z,3.00
2023-05-19T11:04:12.062Z,2.70
2023-05-19T11:06:40.441Z,2.78
2023-05-19T11:09:16.100Z,2.90
2023-05-19T11:11:48.723Z,2.70
2023-05-19T11:14:18.672Z,2.78
2023-05-19T11:16:49.775Z,2.55
2023-05-19T11:19:31.285Z,2.72
2023-05-19T11:22:12.220Z,2.88
2023-05-19T11:24:47.897Z,3.10
2023-05-19T11:27:31.319Z,3.00
2023-05-19T11:30:11.761Z,2.95
2023-05-19T11:32:39.420Z,2.97
2023-05-19T11:35:07.865Z,2.88
2023-05-19T11:37:35.820Z,3.30
2023-05-19T11:40:07.512Z,3.13
2023-05-19T11:42:36.056Z,3.00
2023-05-19T11:45:03.872Z,2.85
2023-05-19T11:47:42.074Z,2.95
2023-05-19T11:50:14.232Z,2.97
2023-05-19T11:52:45.117Z,3.25
2023-05-19T11:55:18.863Z,3.05
2023-05-19T11:58:03.887Z,2.92
2023-05-19T12:00:39.964Z,3.10
2023-05-19T12:03:08.077Z,3.43
2023-05-19T12:05:42.056Z,3.63
2023-05-19T12:08:11.313Z,3.15
2023-05-19T12:10:39.369Z,3.40
2023-05-19T12:13:09.292Z,3.17
2023-05-19T12:15:36.746Z,3.00
2023-05-19T12:18:04.082Z,3.47
2023-05-19T12:20:35.805Z,3.08
2023-05-19T12:23:03.584Z,3.47
2023-05-19T12:25:31.229Z,3.42
2023-05-19T12:28:03.069Z,3.40
2023-05-19T12:30:31.587Z,3.63
2023-05-19T12:32:58.894Z,3.30
2023-05-19T12:35:37.703Z,3.70
2023-05-19T12:38:05.456Z,3.60
2023-05-19T12:40:35.326Z,3.45
2023-05-19T12:43:02.807Z,3.55
2023-05-19T12:45:34.754Z,3.80
2023-05-19T12:48:05.268Z,3.40
2023-05-19T12:50:32.863Z,3.58
2023-05-19T12:53:00.070Z,3.58
2023-05-19T12:55:27.111Z,3.65
2023-05-19T12:57:57.020Z,3.65
2023-05-19T13:00:28.118Z,3.53
2023-05-19T13:03:00.004Z,3.70
2023-05-19T13:05:29.226Z,3.28
2023-05-19T13:08:00.327Z,3.78
2023-05-19T13:10:27.857Z,3.72
2023-05-19T13:12:55.916Z,3.80
2023-05-19T13:15:26.493Z,3.60
2023-05-19T13:17:54.130Z,3.58
2023-05-19T13:20:22.021Z,3.50
2023-05-19T13:22:49.484Z,3.35
2023-05-19T13:25:16.772Z,3.47
2023-05-19T13:27:45.811Z,3.28
2023-05-19T13:30:12.936Z,3.45
2023-05-19T13:32:39.883Z,3.60
2023-05-19T13:35:07.159Z,3.33
2023-05-19T13:37:33.982Z,3.42
2023-05-19T13:40:00.764Z,3.08
2023-05-19T13:42:28.120Z,3.55
2023-05-19T13:44:56.346Z,3.67
2023-05-19T13:47:24.024Z,3.38
2023-05-19T13:49:51.300Z,3.80
2023-05-19T13:52:19.044Z,3.38
2023-05-19T13:54:45.880Z,3.15
2023-05-19T13:57:12.652Z,3.45
2023-05-19T13:59:49.293Z,2.95
2023-05-19T14:02:24.315Z,3.50
2023-05-19T14:04:51.308Z,3.53
2023-05-19T14:07:18.068Z,3.30
2023-05-19T14:09:46.074Z,3.28
2023-05-19T14:12:13.829Z,3.78
2023-05-19T14:14:40.702Z,3.40
2023-05-19T14:17:07.533Z,3.40
2023-05-19T14:19:34.338Z,3.13
2023-05-19T14:22:01.121Z,3.10
2023-05-19T14:24:27.815Z,3.53
2023-05-19T14:26:54.609Z,3.30
2023-05-19T14:29:21.340Z,3.05
2023-05-19T14:31:48.118Z,3.13
2023-05-19T14:34:17.842Z,3.30
2023-05-19T14:36:44.722Z,3.50
2023-05-19T14:39:11.941Z,3.50
2023-05-19T14:41:38.732Z,3.30
2023-05-19T14:44:05.620Z,3.15
2023-05-19T14:46:32.366Z,3.13
2023-05-19T14:48:59.350Z,3.30
2023-05-19T14:51:26.135Z,3.22
2023-05-19T14:53:52.823Z,3.00
2023-05-19T14:56:19.543Z,3.58
2023-05-19T14:58:46.218Z,3.25
2023-05-19T15:01:13.078Z,3.38
2023-05-19T15:03:39.929Z,3.30
2023-05-19T15:06:10.790Z,3.17
2023-05-19T15:08:37.901Z,3.20
2023-05-19T15:11:04.741Z,3.00
2023-05-19T15:13:31.558Z,3.55
2023-05-19T15:16:12.315Z,3.63
2023-05-19T15:18:42.826Z,3.40
2023-05-19T15:21:09.664Z,3.35
2023-05-19T15:23:36.407Z,3.88
2023-05-19T15:26:03.205Z,3.20
2023-05-19T15:28:29.940Z,3.28
2023-05-19T15:30:56.741Z,3.20
2023-05-19T15:33:23.550Z,3.40
2023-05-19T15:35:52.127Z,3.00
2023-05-19T15:38:19.817Z,3.30
2023-05-19T15:40:46.873Z,3.45
2023-05-19T15:43:13.783Z,3.40
2023-05-19T15:45:40.914Z,2.90
2023-05-19T15:48:08.130Z,3.15
2023-05-19T15:50:35.328Z,3.17
2023-05-19T15:53:02.562Z,3.50
2023-05-19T15:55:29.469Z,3.17
2023-05-19T15:57:56.220Z,3.10
2023-05-19T16:00:23.613Z,3.30
2023-05-19T16:02:50.652Z,3.60
2023-05-19T16:05:17.792Z,3.42
2023-05-19T16:07:45.000Z,3.40
2023-05-19T16:10:11.769Z,3.65
2023-05-19T16:12:38.480Z,3.50
2023-05-19T16:15:06.038Z,3.33
2023-05-19T16:17:32.977Z,3.58
2023-05-19T16:19:59.700Z,3.08
2023-05-19T16:22:27.120Z,3.33
2023-05-19T16:24:53.888Z,3.25
2023-05-19T16:27:20.644Z,3.40
2023-05-19T16:29:47.367Z,3.25
2023-05-19T16:32:14.187Z,2.92
2023-05-19T16:34:41.134Z,3.22
2023-05-19T16:37:07.914Z,3.25
2023-05-19T16:39:37.266Z,3.10
2023-05-19T16:42:04.710Z,3.03
2023-05-19T16:44:31.455Z,3.00
2023-05-19T16:46:58.324Z,3.10
2023-05-19T16:49:25.406Z,3.00
2023-05-19T16:51:53.065Z,3.33
2023-05-19T16:54:21.162Z,3.22
2023-05-19T16:56:47.956Z,2.88
2023-05-19T16:59:14.780Z,2.85
2023-05-19T17:01:41.809Z,2.97
2023-05-19T17:04:08.803Z,2.88
2023-05-19T17:06:35.901Z,3.00
2023-05-19T17:09:02.730Z,3.10
2023-05-19T17:11:29.636Z,3.08
2023-05-19T17:13:56.430Z,3.10
2023-05-19T17:16:23.838Z,3.20
2023-05-19T17:18:51.222Z,2.70
2023-05-19T17:21:18.054Z,3.03
2023-05-19T17:23:44.776Z,3.03
2023-05-19T17:26:11.570Z,3.10
2023-05-19T17:28:38.321Z,3.08
2023-05-19T17:31:12.372Z,3.00
2023-05-19T17:33:39.610Z,3.10
2023-05-19T17:36:07.705Z,2.63
2023-05-19T17:38:35.037Z,2.95
2023-05-19T17:41:02.491Z,2.90
2023-05-19T17:43:29.349Z,3.08
2023-05-19T17:45:56.519Z,2.67
2023-05-19T17:48:25.799Z,2.70
2023-05-19T17:50:52.548Z,2.80
2023-05-19T17:53:19.578Z,3.15
2023-05-19T17:55:51.162Z,2.70
2023-05-19T17:58:18.880Z,2.70
2023-05-19T18:00:45.819Z,2.67
2023-05-19T18:03:13.002Z,2.80
2023-05-19T18:05:40.439Z,2.75
2023-05-19T18:08:09.396Z,3.08
2023-05-19T18:10:38.167Z,3.10
2023-05-19T18:13:06.194Z,2.92
2023-05-19T18:15:33.352Z,2.85
2023-05-19T18:18:00.654Z,2.80
2023-05-19T18:20:27.512Z,2.88
2023-05-19T18:22:54.241Z,3.20
2023-05-19T18:25:21.821Z,2.53
2023-05-19T18:27:48.515Z,3.00
2023-05-19T18:30:15.294Z,2.67
2023-05-19T18:32:42.159Z,3.00
2023-05-19T18:35:09.575Z,2.72
2023-05-19T18:37:36.325Z,2.78
2023-05-19T18:40:03.066Z,3.08
2023-05-19T18:42:29.914Z,2.65
2023-05-19T18:44:56.679Z,3.42
2023-05-19T18:47:23.544Z,2.80
2023-05-19T18:49:50.319Z,2.78
2023-05-19T18:52:18.969Z,3.30
2023-05-19T18:54:47.040Z,2.85
2023-05-19T18:57:16.705Z,3.00
2023-05-19T18:59:43.419Z,3.15
2023-05-19T19:02:10.259Z,3.10
2023-05-19T19:04:37.039Z,2.90
2023-05-19T19:07:05.053Z,3.53
2023-05-19T19:09:31.764Z,3.20
2023-05-19T19:11:58.457Z,2.95
2023-05-19T19:14:25.168Z,2.90
2023-05-19T19:16:51.951Z,3.03
2023-05-19T19:19:18.884Z,2.70
2023-05-19T19:21:45.738Z,2.65
2023-05-19T19:24:13.726Z,2.78
2023-05-19T19:26:40.619Z,2.55
2023-05-19T19:29:07.313Z,2.83
2023-05-19T19:31:34.120Z,3.08
2023-05-19T19:34:03.802Z,3.25
2023-05-19T19:36:31.834Z,3.45
2023-05-19T19:38:59.028Z,3.13
2023-05-19T19:41:28.017Z,2.90
2023-05-19T19:43:54.810Z,2.88
2023-05-19T19:46:21.695Z,3.35
2023-05-19T19:48:48.500Z,3.72
2023-05-19T19:51:15.203Z,3.42
2023-05-19T19:53:41.921Z,3.90
2023-05-19T19:56:09.780Z,3.45
2023-05-19T19:58:36.492Z,3.40
2023-05-19T20:01:04.321Z,3.70
2023-05-19T20:03:33.141Z,3.45
2023-05-19T20:06:00.098Z,3.53
2023-05-19T20:08:27.252Z,3.55
2023-05-19T20:10:54.327Z,3.50
2023-05-19T20:13:21.286Z,3.88
2023-05-19T20:15:48.112Z,3.58
2023-05-19T20:18:15.004Z,4.03
2023-05-19T20:20:42.354Z,3.65
2023-05-19T20:23:09.269Z,4.35
2023-05-19T20:25:51.073Z,3.50
2023-05-19T20:28:25.842Z,3.70
2023-05-19T20:30:52.625Z,3.90
2023-05-19T20:33:19.651Z,3.83
2023-05-19T20:35:46.376Z,3.38
2023-05-19T20:38:13.084Z,4.00
2023-05-19T20:40:39.904Z,3.78
2023-05-19T20:43:06.651Z,3.70
2023-05-19T20:45:33.673Z,3.80
2023-05-19T20:48:02.652Z,3.65
2023-05-19T20:50:29.631Z,3.80
2023-05-19T20:52:56.391Z,3.53
2023-05-19T20:55:23.157Z,3.65
2023-05-19T20:57:49.864Z,3.25
2023-05-19T21:00:16.875Z,3.55
2023-05-19T21:02:44.479Z,3.80
2023-05-19T21:05:11.490Z,4.03
2023-05-19T21:07:38.321Z,3.90
2023-05-19T21:10:05.625Z,3.70
2023-05-19T21:12:34.149Z,3.60
2023-05-19T21:15:01.664Z,3.47
2023-05-19T21:17:28.514Z,4.20
2023-05-19T21:19:58.052Z,3.80
2023-05-19T21:22:26.519Z,3.67
2023-05-19T21:24:54.219Z,3.50
2023-05-19T21:27:21.071Z,3.53
2023-05-19T21:29:51.562Z,3.67
2023-05-19T21:32:18.331Z,3.38
2023-05-19T21:34:45.185Z,3.10
2023-05-19T21:37:12.427Z,3.40
2023-05-19T21:39:39.262Z,3.28
2023-05-19T21:42:06.383Z,3.50
2023-05-19T21:44:33.187Z,3.25
2023-05-19T21:47:00.053Z,2.95
2023-05-19T21:49:26.876Z,3.08
2023-05-19T21:51:53.654Z,3.00
2023-05-19T21:54:20.459Z,2.83
2023-05-19T21:56:47.218Z,3.05
2023-05-19T21:59:14.097Z,2.80
2023-05-19T22:01:40.987Z,2.47
2023-05-19T22:04:09.327Z,2.47
2023-05-19T22:06:36.218Z,2.40
2023-05-19T22:09:03.074Z,2.42
2023-05-19T22:11:29.782Z,2.15
2023-05-19T22:13:56.516Z,2.50
2023-05-19T22:16:23.348Z,2.47
2023-05-19T22:18:50.154Z,2.15
2023-05-19T22:21:16.962Z,2.22
2023-05-19T22:23:44.136Z,2.10
2023-05-19T22:26:10.924Z,2.10
2023-05-19T22:28:37.654Z,1.95
2023-05-19T22:31:04.598Z,1.85
2023-05-19T22:33:31.311Z,1.85
2023-05-19T22:35:58.191Z,1.92
2023-05-19T22:38:25.053Z,2.03
2023-05-19T22:40:51.796Z,1.90
2023-05-19T22:43:18.516Z,2.03
2023-05-19T22:45:45.692Z,1.80
2023-05-19T22:48:12.641Z,1.83
2023-05-19T22:50:39.366Z,2.08
2023-05-19T22:53:06.215Z,1.75
2023-05-19T22:55:33.243Z,1.80
2023-05-19T22:58:00.836Z,1.70
2023-05-19T23:00:27.616Z,1.70
2023-05-19T23:02:54.498Z,2.10
2023-05-19T23:05:21.315Z,1.55
2023-05-19T23:07:48.015Z,1.80
2023-05-19T23:10:14.780Z,1.92
2023-05-19T23:12:41.498Z,1.40
2023-05-19T23:15:09.634Z,1.70
2023-05-19T23:17:36.774Z,1.88
2023-05-19T23:20:03.959Z,1.83
2023-05-19T23:22:30.678Z,1.67
2023-05-19T23:24:57.465Z,1.90
2023-05-19T23:27:24.223Z,1.98
2023-05-19T23:29:51.095Z,1.52
2023-05-19T23:32:17.843Z,1.63
2023-05-19T23:34:44.670Z,1.77
2023-05-19T23:37:11.766Z,1.98
2023-05-19T23:39:38.511Z,1.80
2023-05-19T23:42:06.002Z,1.80
2023-05-19T23:44:32.818Z,1.50
2023-05-19T23:46:59.803Z,1.77
2023-05-19T23:49:26.689Z,1.70
2023-05-19T23:51:53.476Z,1.58
2023-05-19T23:54:20.258Z,1.60
2023-05-19T23:56:46.987Z,1.80
2023-05-19T23:59:13.704Z,1.70
